Time;durP1;ratioP1;P1;durP2;ratioP2;P2;SDS_P1;SDS_P2;PMS_P1;PMS_P2;Temp;Humidity;BMP_temperature;BMP_pressure;BME280_temperature;BME280_humidity;BME280_pressure;Samples;Min_cycle;Max_cycle;Signal;HPM_P1;HPM_P2
2022/12/11 00:00:53;;;;;;;52.73;20.73;;;0.30;99.90;;;;;;5032706;28;20182;-49
2022/12/11 00:06:41;;;;;;;50.57;20.10;;;0.30;99.90;;;;;;5034740;28;20179;-50
2022/12/11 00:09:07;;;;;;;43.10;18.73;;;0.30;99.90;;;;;;5016329;28;20201;-51
2022/12/11 00:12:14;;;;;;;48.10;19.73;;;0.30;99.90;;;;;;5033655;28;20181;-49
2022/12/11 00:14:40;;;;;;;41.73;17.70;;;0.30;99.90;;;;;;5015714;28;20177;-49
2022/12/11 00:17:05;;;;;;;44.50;20.23;;;0.30;99.90;;;;;;5033811;28;20241;-48
2022/12/11 00:19:31;;;;;;;48.13;19.93;;;0.30;99.90;;;;;;5033889;28;20204;-49
2022/12/11 00:21:56;;;;;;;46.43;20.23;;;0.30;99.90;;;;;;5033510;28;20197;-49
2022/12/11 00:24:22;;;;;;;50.97;21.63;;;0.30;99.90;;;;;;5033127;28;20188;-48
2022/12/11 00:26:47;;;;;;;48.53;21.73;;;0.30;99.90;;;;;;5033389;28;20191;-49
2022/12/11 00:29:13;;;;;;;47.43;21.17;;;0.30;99.90;;;;;;5033132;28;20576;-48
2022/12/11 00:31:40;;;;;;;52.37;22.30;;;0.30;99.90;;;;;;5033510;28;20238;-49
2022/12/11 00:34:06;;;;;;;49.97;21.50;;;0.30;99.90;;;;;;5033263;28;20907;-48
2022/12/11 00:36:32;;;;;;;50.83;21.03;;;0.30;99.90;;;;;;5033212;28;20418;-49
2022/12/11 00:38:57;;;;;;;50.57;21.57;;;0.30;99.90;;;;;;5015818;28;20200;-50
2022/12/11 00:41:23;;;;;;;38.70;19.17;;;0.30;99.90;;;;;;5033030;28;20184;-48
2022/12/11 00:43:49;;;;;;;53.67;21.67;;;0.30;99.90;;;;;;5015764;28;20179;-50
2022/12/11 00:46:15;;;;;;;52.63;21.47;;;0.30;99.90;;;;;;5033203;28;20294;-48
2022/12/11 00:48:40;;;;;;;44.20;21.57;;;0.40;99.90;;;;;;5033433;28;20295;-48
2022/12/11 00:51:06;;;;;;;50.83;20.40;;;0.30;99.90;;;;;;5032843;28;20664;-49
2022/12/11 00:53:32;;;;;;;50.40;22.90;;;0.40;99.90;;;;;;5033256;28;20591;-49
2022/12/11 00:55:57;;;;;;;46.10;20.70;;;0.40;99.90;;;;;;5032907;28;20449;-49
2022/12/11 00:58:23;;;;;;;48.23;20.83;;;0.40;99.90;;;;;;5032844;28;20177;-49
2022/12/11 01:00:49;;;;;;;47.53;22.23;;;0.40;99.90;;;;;;5032860;28;20179;-50
2022/12/11 01:03:15;;;;;;;50.63;22.20;;;0.40;99.90;;;;;;5033127;28;20188;-49
2022/12/11 01:05:49;;;;;;;52.27;21.40;;;0.40;99.90;;;;;;5033402;28;20636;-50
2022/12/11 01:08:14;;;;;;;48.17;21.63;;;0.40;99.90;;;;;;5033284;28;20538;-49
2022/12/11 01:10:40;;;;;;;57.47;22.23;;;0.40;99.90;;;;;;5033337;28;20216;-48
2022/12/11 01:13:06;;;;;;;42.27;20.37;;;0.40;99.90;;;;;;5035155;28;20181;-49
2022/12/11 01:15:37;;;;;;;47.20;21.53;;;0.40;99.90;;;;;;5036526;28;20179;-49
2022/12/11 01:18:03;;;;;;;48.00;20.40;;;0.40;99.90;;;;;;5036738;28;20628;-49
2022/12/11 01:20:29;;;;;;;45.10;20.00;;;0.40;99.90;;;;;;5036699;28;20449;-49
2022/12/11 01:22:57;;;;;;;42.23;19.13;;;0.40;99.90;;;;;;5036638;28;20187;-49
2022/12/11 01:25:23;;;;;;;45.90;20.13;;;0.40;99.90;;;;;;5019001;28;20724;-49
2022/12/11 01:27:50;;;;;;;40.70;18.83;;;0.40;99.90;;;;;;5019319;28;20624;-49
2022/12/11 01:30:17;;;;;;;41.43;17.87;;;0.40;99.90;;;;;;5038267;28;20208;-48
2022/12/11 01:32:42;;;;;;;44.67;19.30;;;0.40;99.90;;;;;;5050002;28;20183;-48
2022/12/11 01:35:08;;;;;;;46.33;19.60;;;0.40;99.90;;;;;;5031490;28;20524;-49
2022/12/11 01:37:34;;;;;;;48.60;20.70;;;0.40;99.90;;;;;;5037315;28;20203;-48
2022/12/11 01:40:00;;;;;;;49.20;19.40;;;0.40;99.90;;;;;;5036731;28;20208;-49
2022/12/11 01:42:28;;;;;;;47.20;18.07;;;0.40;99.90;;;;;;5036393;28;20217;-49
2022/12/11 01:45:31;;;;;;;45.90;18.77;;;0.40;99.90;;;;;;5036296;28;20180;-50
2022/12/11 01:48:05;;;;;;;44.93;18.77;;;0.40;99.90;;;;;;4985267;28;20228;-49
2022/12/11 01:50:35;;;;;;;42.13;17.93;;;0.40;99.90;;;;;;5056387;23;20588;-40
2022/12/11 01:53:02;;;;;;;42.13;17.60;;;0.40;99.90;;;;;;5036061;28;20408;-41
2022/12/11 01:55:28;;;;;;;41.53;16.60;;;0.40;99.90;;;;;;5035603;28;20418;-41
2022/12/11 01:57:54;;;;;;;38.60;16.63;;;0.30;99.90;;;;;;5035786;28;20169;-40
2022/12/11 02:00:20;;;;;;;37.70;16.93;;;0.40;99.90;;;;;;5037219;28;20257;-43
2022/12/11 02:02:46;;;;;;;36.90;16.37;;;0.40;99.90;;;;;;5055935;28;20241;-46
2022/12/11 02:05:12;;;;;;;35.60;15.60;;;0.30;99.90;;;;;;5056048;28;20263;-46
2022/12/11 02:07:48;;;;;;;35.63;16.30;;;0.30;99.90;;;;;;5055726;28;20211;-47
2022/12/11 02:10:14;;;;;;;37.60;16.23;;;0.30;99.90;;;;;;5056049;28;20196;-46
2022/12/11 02:12:58;;;;;;;35.20;15.67;;;0.30;99.90;;;;;;5056130;28;20429;-47
2022/12/11 02:15:56;;;;;;;35.83;16.00;;;0.30;99.90;;;;;;5038327;28;20178;-47
2022/12/11 02:18:37;;;;;;;40.37;17.80;;;0.30;99.90;;;;;;5038066;28;20530;-47
2022/12/11 02:21:23;;;;;;;37.67;16.97;;;0.30;99.90;;;;;;5056029;28;20623;-48
2022/12/11 02:23:51;;;;;;;37.03;16.87;;;0.30;99.90;;;;;;5054747;28;20437;-47
2022/12/11 02:27:00;;;;;;;42.00;17.73;;;0.30;99.90;;;;;;5055673;28;20413;-46
2022/12/11 02:29:32;;;;;;;44.97;16.53;;;0.30;99.90;;;;;;5057094;28;20440;-48
2022/12/11 02:32:05;;;;;;;45.10;18.87;;;0.30;99.90;;;;;;5057590;28;20402;-48
2022/12/11 02:34:41;;;;;;;49.37;20.63;;;0.30;99.90;;;;;;5057363;28;20642;-47
2022/12/11 02:37:13;;;;;;;38.83;17.90;;;0.30;99.90;;;;;;5057352;28;20402;-46
2022/12/11 02:39:42;;;;;;;46.73;18.93;;;0.30;99.90;;;;;;5057720;28;20235;-46
2022/12/11 02:42:09;;;;;;;45.37;19.67;;;0.30;99.90;;;;;;5057220;28;20312;-47
2022/12/11 02:44:36;;;;;;;37.73;18.43;;;0.30;99.90;;;;;;5056878;28;20440;-45
2022/12/11 02:47:06;;;;;;;44.13;18.50;;;0.30;99.90;;;;;;5055508;28;20191;-43
2022/12/11 02:49:32;;;;;;;43.87;19.13;;;0.30;99.90;;;;;;5055212;28;20531;-42
2022/12/11 02:52:02;;;;;;;40.10;18.00;;;0.30;99.90;;;;;;5054541;28;20565;-41
2022/12/11 02:54:32;;;;;;;41.03;18.23;;;0.30;99.90;;;;;;5055254;28;20894;-43
2022/12/11 02:57:35;;;;;;;38.80;17.17;;;0.30;99.90;;;;;;5036567;28;20414;-44
2022/12/11 03:00:01;;;;;;;34.53;16.80;;;0.30;99.90;;;;;;5054395;28;20691;-42
2022/12/11 03:02:26;;;;;;;40.87;16.90;;;0.30;99.90;;;;;;5054372;28;20418;-42
2022/12/11 03:04:52;;;;;;;33.87;16.37;;;0.30;99.90;;;;;;5054415;28;20187;-42
2022/12/11 03:07:25;;;;;;;36.77;15.77;;;0.30;99.90;;;;;;5054379;28;20670;-43
2022/12/11 03:09:51;;;;;;;36.23;16.00;;;0.20;99.90;;;;;;5054398;28;20434;-40
2022/12/11 03:12:23;;;;;;;32.57;15.70;;;0.20;99.90;;;;;;5054896;28;20410;-41
2022/12/11 03:14:49;;;;;;;35.33;16.77;;;0.20;99.90;;;;;;5054405;28;20730;-40
2022/12/11 03:17:21;;;;;;;37.87;16.63;;;0.30;99.90;;;;;;5054535;28;20286;-43
2022/12/11 03:20:15;;;;;;;28.57;14.87;;;0.30;99.90;;;;;;5054301;28;20433;-42
2022/12/11 03:22:45;;;;;;;33.17;14.37;;;0.30;99.90;;;;;;5054346;28;20179;-42
2022/12/11 03:25:33;;;;;;;26.10;12.53;;;0.30;99.90;;;;;;5054147;28;20168;-43
2022/12/11 03:28:08;;;;;;;28.23;13.03;;;0.30;99.90;;;;;;5053829;28;20195;-44
2022/12/11 03:30:35;;;;;;;30.33;13.53;;;0.30;99.90;;;;;;5054059;28;20185;-42
2022/12/11 03:33:06;;;;;;;27.87;12.40;;;0.30;99.90;;;;;;5054615;28;20176;-41
2022/12/11 03:35:40;;;;;;;25.70;13.43;;;0.20;99.90;;;;;;5053948;28;20170;-42
2022/12/11 03:38:14;;;;;;;25.60;11.77;;;0.20;99.90;;;;;;5054122;28;20168;-42
2022/12/11 03:40:43;;;;;;;25.07;12.63;;;0.20;99.90;;;;;;5053977;28;20409;-43
2022/12/11 03:43:10;;;;;;;31.53;14.40;;;0.20;99.90;;;;;;5053644;28;20420;-41
2022/12/11 03:45:39;;;;;;;28.77;14.30;;;0.30;99.90;;;;;;5053727;28;20189;-43
2022/12/11 03:48:06;;;;;;;27.40;13.77;;;0.20;99.90;;;;;;5053745;28;20453;-42
2022/12/11 03:50:33;;;;;;;26.60;12.57;;;0.20;99.90;;;;;;5053754;28;20814;-43
2022/12/11 03:53:00;;;;;;;29.53;14.10;;;0.30;99.90;;;;;;5053861;28;20444;-42
2022/12/11 03:55:28;;;;;;;31.87;15.10;;;0.30;99.90;;;;;;5035779;28;20208;-42
2022/12/11 03:57:54;;;;;;;28.57;14.00;;;0.20;99.90;;;;;;5053522;28;20644;-42
2022/12/11 04:00:20;;;;;;;31.63;14.83;;;0.20;99.90;;;;;;5053482;28;20270;-43
2022/12/11 04:03:11;;;;;;;36.07;14.47;;;0.20;99.90;;;;;;5053732;28;20182;-41
2022/12/11 04:05:34;;;;;;;24.50;13.03;;;0.20;99.90;;;;;;5053192;28;20424;-41
2022/12/11 04:07:59;;;;;;;30.37;14.50;;;0.20;99.90;;;;;;5053859;28;20210;-43
2022/12/11 04:10:25;;;;;;;31.77;15.07;;;0.20;99.90;;;;;;5053787;28;20257;-41
2022/12/11 04:12:50;;;;;;;34.10;15.07;;;0.20;99.90;;;;;;5053482;28;20263;-41
2022/12/11 04:15:16;;;;;;;29.10;14.83;;;0.30;99.90;;;;;;5053527;28;20179;-44
2022/12/11 04:26:11;;;;;;;33.57;15.77;;;0.20;99.90;;;;;;5053719;28;20179;-41
2022/12/11 04:28:37;;;;;;;31.27;14.80;;;0.20;99.90;;;;;;5053181;28;20469;-41
2022/12/11 04:31:03;;;;;;;34.17;15.53;;;0.20;99.90;;;;;;5053678;28;20417;-40
2022/12/11 04:33:29;;;;;;;33.43;15.60;;;0.30;99.90;;;;;;5052976;28;20214;-40
2022/12/11 04:35:59;;;;;;;32.83;15.00;;;0.20;99.90;;;;;;5053161;28;20648;-41
2022/12/11 04:38:25;;;;;;;34.23;15.10;;;0.30;99.90;;;;;;5052930;28;20264;-44
2022/12/11 04:41:02;;;;;;;29.97;13.93;;;0.20;99.90;;;;;;5052962;28;20222;-42
2022/12/11 04:43:27;;;;;;;33.80;15.53;;;0.20;99.90;;;;;;5052797;28;20180;-40
2022/12/11 04:46:20;;;;;;;36.77;15.27;;;0.20;99.90;;;;;;5052696;28;20421;-41
2022/12/11 04:48:47;;;;;;;28.13;13.93;;;0.30;99.90;;;;;;5053492;28;20251;-40
2022/12/11 04:51:13;;;;;;;31.20;14.73;;;0.30;99.90;;;;;;5056755;28;20199;-42
2022/12/11 04:53:39;;;;;;;29.27;12.90;;;0.20;99.90;;;;;;5056872;28;20651;-41
2022/12/11 04:56:09;;;;;;;29.80;14.23;;;0.20;99.90;;;;;;5056867;28;20259;-41
2022/12/11 04:58:35;;;;;;;29.83;14.00;;;0.30;99.90;;;;;;5056999;28;20203;-39
2022/12/11 05:01:16;;;;;;;31.23;14.50;;;0.30;99.90;;;;;;5056596;28;20192;-43
2022/12/11 05:03:41;;;;;;;29.87;13.73;;;0.20;99.90;;;;;;5056907;28;20178;-41
2022/12/11 05:06:09;;;;;;;27.60;13.83;;;0.20;99.90;;;;;;5056754;28;20413;-40
2022/12/11 05:08:36;;;;;;;30.83;13.70;;;0.30;99.90;;;;;;5056521;28;20215;-39
2022/12/11 05:11:04;;;;;;;30.20;15.17;;;0.20;99.90;;;;;;5056355;28;20658;-40
2022/12/11 05:13:30;;;;;;;31.23;13.90;;;0.20;99.90;;;;;;5056359;28;20180;-42
2022/12/11 05:15:56;;;;;;;27.40;13.23;;;0.30;99.90;;;;;;5056572;28;20898;-40
2022/12/11 05:18:22;;;;;;;27.60;14.07;;;0.30;99.90;;;;;;5056170;28;20427;-43
2022/12/11 05:20:59;;;;;;;29.93;13.50;;;0.30;99.90;;;;;;5056501;28;20264;-41
2022/12/11 05:23:25;;;;;;;23.50;12.40;;;0.30;99.90;;;;;;5056295;28;20174;-40
2022/12/11 05:25:59;;;;;;;22.37;11.10;;;0.30;99.90;;;;;;5056123;28;20983;-42
2022/12/11 05:28:27;;;;;;;23.83;11.97;;;0.30;99.90;;;;;;5037998;28;20207;-40
2022/12/11 05:31:17;;;;;;;22.93;11.63;;;0.30;99.90;;;;;;5056354;28;20750;-41
2022/12/11 05:33:44;;;;;;;24.07;11.73;;;0.30;99.90;;;;;;5046418;28;20191;-42
2022/12/11 05:36:17;;;;;;;24.53;12.07;;;0.30;99.90;;;;;;5056385;28;20176;-42
2022/12/11 05:38:42;;;;;;;23.13;11.60;;;0.30;99.90;;;;;;5056285;28;20438;-40
2022/12/11 05:41:11;;;;;;;22.73;11.73;;;0.30;99.90;;;;;;5056298;28;20784;-43
2022/12/11 05:43:36;;;;;;;23.27;11.27;;;0.30;99.90;;;;;;5056270;28;20256;-40
2022/12/11 05:46:13;;;;;;;24.63;12.20;;;0.30;99.90;;;;;;5056590;28;20725;-43
2022/12/11 05:48:39;;;;;;;21.70;11.67;;;0.30;99.90;;;;;;5056994;28;20298;-40
2022/12/11 05:51:07;;;;;;;21.33;11.63;;;0.30;99.90;;;;;;5056945;28;20437;-44
2022/12/11 05:53:34;;;;;;;24.20;11.13;;;0.30;99.90;;;;;;5056220;28;20651;-43
2022/12/11 05:56:14;;;;;;;22.50;11.33;;;0.30;99.90;;;;;;5056111;28;20414;-42
2022/12/11 05:58:41;;;;;;;20.57;11.03;;;0.30;99.90;;;;;;5054433;28;20206;-43
2022/12/11 06:01:11;;;;;;;23.27;11.87;;;0.30;99.90;;;;;;5056257;28;20181;-43
2022/12/11 06:03:37;;;;;;;19.10;10.33;;;0.30;99.90;;;;;;5055938;28;20480;-43
2022/12/11 06:06:05;;;;;;;20.70;11.37;;;0.30;99.90;;;;;;5055982;28;20619;-44
2022/12/11 06:08:31;;;;;;;20.03;11.57;;;0.30;99.90;;;;;;5055491;28;20265;-41
2022/12/11 06:10:57;;;;;;;19.50;10.63;;;0.30;99.90;;;;;;5056712;28;20180;-43
2022/12/11 06:13:22;;;;;;;23.63;11.03;;;0.30;99.90;;;;;;5055845;28;20189;-43
2022/12/11 06:15:48;;;;;;;18.70;10.50;;;0.30;99.90;;;;;;5055944;28;20190;-42
2022/12/11 06:18:14;;;;;;;22.33;10.63;;;0.30;99.90;;;;;;5055424;28;20655;-43
2022/12/11 06:20:39;;;;;;;18.43;9.77;;;0.30;99.90;;;;;;5055796;28;20428;-41
2022/12/11 06:23:05;;;;;;;18.57;9.93;;;0.30;99.90;;;;;;5055326;28;20255;-40
2022/12/11 06:25:31;;;;;;;19.03;9.77;;;0.30;99.90;;;;;;5055880;28;20214;-41
2022/12/11 06:27:57;;;;;;;20.57;10.13;;;0.30;99.90;;;;;;5054966;28;20209;-42
2022/12/11 06:30:22;;;;;;;19.13;10.70;;;0.30;99.90;;;;;;5055004;28;20618;-42
2022/12/11 06:32:48;;;;;;;18.90;9.60;;;0.30;99.90;;;;;;5055597;28;20254;-41
2022/12/11 06:35:14;;;;;;;18.50;9.40;;;0.30;99.90;;;;;;5055299;28;20633;-41
2022/12/11 06:37:39;;;;;;;13.27;8.30;;;0.20;99.90;;;;;;5054975;28;20187;-43
2022/12/11 06:40:07;;;;;;;19.93;9.93;;;0.30;99.90;;;;;;5055011;28;20298;-41
2022/12/11 06:42:33;;;;;;;15.87;9.07;;;0.20;99.90;;;;;;5054658;28;20551;-40
2022/12/11 06:44:58;;;;;;;17.20;8.70;;;0.20;99.90;;;;;;5054651;28;20433;-41
2022/12/11 06:47:31;;;;;;;17.23;8.83;;;0.30;99.90;;;;;;5054764;28;20211;-43
2022/12/11 06:49:56;;;;;;;15.20;9.63;;;0.20;99.90;;;;;;5054520;28;20285;-40
2022/12/11 06:52:23;;;;;;;17.30;9.97;;;0.20;99.90;;;;;;5054501;28;20539;-42
2022/12/11 06:54:49;;;;;;;15.70;8.90;;;0.20;99.90;;;;;;5054961;28;20201;-41
2022/12/11 06:57:16;;;;;;;15.43;9.30;;;0.20;99.90;;;;;;5054894;28;20500;-42
2022/12/11 06:59:41;;;;;;;16.30;9.20;;;0.20;99.90;;;;;;5054499;28;20192;-41
2022/12/11 07:02:13;;;;;;;19.03;9.83;;;0.20;99.90;;;;;;5054647;28;20501;-41
2022/12/11 07:04:39;;;;;;;16.33;8.97;;;0.20;99.90;;;;;;5054568;28;20218;-41
2022/12/11 07:07:05;;;;;;;14.73;8.93;;;0.20;99.90;;;;;;5054309;28;20538;-43
2022/12/11 07:09:30;;;;;;;16.37;9.47;;;0.20;99.90;;;;;;5053896;28;20487;-41
2022/12/11 07:11:57;;;;;;;14.90;8.97;;;0.10;99.90;;;;;;5054576;28;20529;-42
2022/12/11 07:14:22;;;;;;;17.00;9.33;;;0.10;99.90;;;;;;5054275;28;20702;-42
2022/12/11 07:16:48;;;;;;;17.20;9.67;;;0.10;99.90;;;;;;5054202;28;20457;-41
2022/12/11 07:19:14;;;;;;;17.63;8.80;;;0.10;99.90;;;;;;5053988;28;20203;-42
2022/12/11 07:21:39;;;;;;;14.93;9.00;;;0.10;99.90;;;;;;5054423;28;20180;-44
2022/12/11 07:24:05;;;;;;;14.83;8.17;;;0.20;99.90;;;;;;5054248;28;20181;-43
2022/12/11 07:26:31;;;;;;;16.13;8.57;;;0.10;99.90;;;;;;5053880;28;20222;-41
2022/12/11 07:28:57;;;;;;;15.03;8.60;;;0.10;99.90;;;;;;5054310;28;20505;-42
2022/12/11 07:31:25;;;;;;;16.20;8.83;;;0.10;99.90;;;;;;5054905;28;20257;-43
2022/12/11 07:33:55;;;;;;;17.20;9.47;;;0.10;99.90;;;;;;5054011;28;20768;-44
2022/12/11 07:36:21;;;;;;;19.60;9.50;;;0.10;99.90;;;;;;5054464;28;20407;-42
2022/12/11 07:38:47;;;;;;;16.13;8.70;;;0.00;99.90;;;;;;5054085;28;20816;-44
2022/12/11 07:41:14;;;;;;;15.27;9.47;;;0.00;99.90;;;;;;5053806;28;20504;-41
2022/12/11 07:43:40;;;;;;;17.00;9.83;;;0.00;99.90;;;;;;5054251;28;20189;-43
2022/12/11 07:46:09;;;;;;;16.70;9.97;;;0.00;99.90;;;;;;5054158;28;20869;-44
2022/12/11 07:48:36;;;;;;;13.93;9.13;;;0.00;99.90;;;;;;5054004;28;20203;-41
2022/12/11 07:51:14;;;;;;;16.37;9.53;;;0.00;99.90;;;;;;5053841;28;20540;-44
2022/12/11 07:53:44;;;;;;;17.13;10.50;;;0.00;99.90;;;;;;5053413;28;20304;-42
2022/12/11 07:56:10;;;;;;;15.23;8.90;;;0.00;99.90;;;;;;5053264;28;20895;-41
2022/12/11 07:58:37;;;;;;;15.57;9.60;;;0.00;99.90;;;;;;5053233;28;20436;-42
2022/12/11 08:01:04;;;;;;;17.80;10.30;;;0.00;99.90;;;;;;5053051;28;20784;-43
2022/12/11 08:03:29;;;;;;;18.43;9.77;;;0.00;99.90;;;;;;5052779;28;20422;-44
2022/12/11 08:05:55;;;;;;;17.63;10.07;;;0.00;99.90;;;;;;5052674;28;20964;-41
2022/12/11 08:08:20;;;;;;;20.80;10.90;;;0.00;99.90;;;;;;5052707;28;20685;-42
2022/12/11 08:10:46;;;;;;;21.40;10.70;;;0.00;99.90;;;;;;5034984;28;20184;-42
2022/12/11 08:13:12;;;;;;;21.67;11.27;;;0.00;99.90;;;;;;5052917;28;20242;-43
2022/12/11 08:15:37;;;;;;;21.63;11.00;;;0.00;99.90;;;;;;5052637;28;20246;-42
2022/12/11 08:18:03;;;;;;;20.30;11.33;;;0.00;99.90;;;;;;5052463;28;20182;-40
2022/12/11 08:20:29;;;;;;;21.00;10.70;;;0.00;99.90;;;;;;5052828;28;20222;-39
2022/12/11 08:22:55;;;;;;;20.53;11.60;;;0.00;99.90;;;;;;5054527;28;20413;-43
2022/12/11 08:25:21;;;;;;;15.43;9.60;;;0.00;99.90;;;;;;5056283;28;20440;-44
2022/12/11 08:27:46;;;;;;;20.53;10.63;;;0.00;99.90;;;;;;5056233;28;20202;-41
2022/12/11 08:30:12;;;;;;;18.60;10.20;;;0.00;99.90;;;;;;5055817;28;20204;-43
2022/12/11 08:32:38;;;;;;;19.70;11.33;;;0.00;99.90;;;;;;5038041;28;20323;-41
2022/12/11 08:35:04;;;;;;;19.33;11.00;;;0.00;99.90;;;;;;5056336;28;20179;-41
2022/12/11 08:37:29;;;;;;;20.57;10.90;;;0.00;99.90;;;;;;5056126;28;20646;-41
2022/12/11 08:39:55;;;;;;;19.37;11.07;;;0.00;99.90;;;;;;5055876;28;20202;-42
2022/12/11 08:42:20;;;;;;;20.00;10.87;;;0.00;99.90;;;;;;5055704;28;20718;-41
2022/12/11 08:44:46;;;;;;;20.93;11.73;;;0.00;99.90;;;;;;5056040;28;20194;-41
2022/12/11 08:47:11;;;;;;;21.23;12.13;;;0.00;99.90;;;;;;5056124;28;20185;-42
2022/12/11 08:49:37;;;;;;;19.13;11.37;;;0.00;99.90;;;;;;5055874;28;20210;-40
2022/12/11 08:52:04;;;;;;;19.27;11.50;;;0.00;99.90;;;;;;5013738;28;1230198;-41
2022/12/11 08:54:30;;;;;;;19.27;11.53;;;0.00;99.90;;;;;;5057185;28;20210;-42
2022/12/11 08:56:55;;;;;;;21.87;12.20;;;0.10;99.90;;;;;;5057045;28;20864;-42
2022/12/11 08:59:21;;;;;;;20.37;11.50;;;0.00;99.90;;;;;;5056613;28;20209;-41
2022/12/11 09:01:47;;;;;;;21.97;12.17;;;0.00;99.90;;;;;;5057136;28;20192;-41
2022/12/11 09:04:12;;;;;;;22.63;12.47;;;0.00;99.90;;;;;;5056921;28;20288;-42
2022/12/11 09:06:38;;;;;;;19.57;11.70;;;0.00;99.90;;;;;;5056766;28;20183;-41
2022/12/11 09:09:04;;;;;;;20.73;11.87;;;0.00;99.90;;;;;;5056577;28;20217;-42
2022/12/11 09:11:34;;;;;;;22.50;11.80;;;0.10;99.90;;;;;;5056654;28;20202;-42
2022/12/11 09:14:01;;;;;;;20.73;11.40;;;0.10;99.90;;;;;;5056998;28;20464;-43
2022/12/11 09:16:27;;;;;;;20.80;11.53;;;0.10;99.90;;;;;;5056418;28;20178;-41
2022/12/11 09:18:56;;;;;;;21.73;12.00;;;0.10;99.90;;;;;;5056375;28;20520;-41
2022/12/11 09:21:26;;;;;;;19.53;11.27;;;0.10;99.90;;;;;;5056353;28;20428;-41
2022/12/11 09:23:56;;;;;;;25.30;12.60;;;0.20;99.90;;;;;;5056485;28;20944;-42
2022/12/11 09:26:22;;;;;;;21.50;11.83;;;0.20;99.90;;;;;;5057111;28;20411;-43
2022/12/11 09:28:51;;;;;;;20.67;12.00;;;0.30;99.90;;;;;;5056247;28;20865;-42
2022/12/11 09:31:22;;;;;;;22.43;12.10;;;0.30;99.90;;;;;;5056765;28;20188;-41
2022/12/11 09:33:49;;;;;;;22.30;12.13;;;0.30;99.90;;;;;;5056272;28;20434;-40
2022/12/11 09:36:15;;;;;;;25.23;12.57;;;0.30;99.90;;;;;;5056932;28;20863;-43
2022/12/11 09:38:42;;;;;;;24.43;12.10;;;0.30;99.90;;;;;;5056345;28;20480;-42
2022/12/11 09:41:20;;;;;;;23.50;12.43;;;0.40;99.90;;;;;;5056377;28;20219;-43
2022/12/11 09:44:28;;;;;;;24.77;12.63;;;0.40;99.90;;;;;;5056602;28;20544;-42
2022/12/11 09:46:55;;;;;;;25.77;12.53;;;0.40;99.90;;;;;;4975586;28;20448;-43
2022/12/11 09:49:27;;;;;;;23.77;12.53;;;0.40;99.90;;;;;;4975856;28;21010;-42
2022/12/11 09:52:04;;;;;;;25.03;12.17;;;0.50;99.90;;;;;;5016872;28;20223;-43
2022/12/11 09:54:30;;;;;;;21.97;12.27;;;0.50;99.90;;;;;;5056135;28;20386;-44
2022/12/11 09:57:24;;;;;;;22.33;12.80;;;0.50;99.90;;;;;;5056304;28;20445;-42
2022/12/11 10:00:17;;;;;;;21.30;12.27;;;0.50;99.90;;;;;;5056674;28;20843;-42
2022/12/11 10:03:10;;;;;;;22.87;12.77;;;0.50;99.90;;;;;;5056423;28;20430;-42
2022/12/11 10:06:06;;;;;;;20.93;11.53;;;0.50;99.90;;;;;;5056462;28;20573;-43
2022/12/11 10:08:41;;;;;;;20.90;10.90;;;0.50;99.90;;;;;;5056142;28;20478;-43
2022/12/11 10:11:21;;;;;;;23.27;12.23;;;0.60;99.90;;;;;;5056385;28;20220;-43
2022/12/11 10:13:58;;;;;;;20.67;10.87;;;0.60;99.90;;;;;;5055914;28;20202;-42
2022/12/11 10:16:43;;;;;;;21.63;10.93;;;0.60;99.90;;;;;;5056315;28;20405;-44
2022/12/11 10:19:21;;;;;;;27.57;12.67;;;0.60;99.90;;;;;;5055745;28;20214;-41
2022/12/11 10:21:49;;;;;;;25.23;12.97;;;0.60;99.90;;;;;;5055812;28;20241;-43
2022/12/11 10:24:43;;;;;;;20.70;10.77;;;0.60;99.90;;;;;;5055640;28;20172;-41
2022/12/11 10:27:18;;;;;;;22.03;11.07;;;0.60;99.90;;;;;;5055281;28;20929;-42
2022/12/11 10:29:43;;;;;;;16.53;11.13;;;0.60;99.90;;;;;;5055514;28;20486;-41
2022/12/11 10:32:22;;;;;;;19.03;10.57;;;0.60;99.90;;;;;;5055241;28;20631;-41
2022/12/11 10:34:50;;;;;;;20.67;10.77;;;0.60;99.90;;;;;;5055418;28;20557;-40
2022/12/11 10:37:16;;;;;;;20.23;10.97;;;0.60;99.90;;;;;;5055684;28;20281;-41
2022/12/11 10:39:41;;;;;;;17.70;10.10;;;0.60;99.90;;;;;;5055172;28;20646;-42
2022/12/11 10:42:19;;;;;;;18.30;10.17;;;0.60;99.90;;;;;;5055296;28;20173;-43
2022/12/11 10:44:59;;;;;;;17.37;9.47;;;0.60;99.90;;;;;;5054427;28;20203;-40
2022/12/11 10:47:26;;;;;;;16.70;9.50;;;0.60;99.90;;;;;;5054808;28;20465;-41
2022/12/11 10:50:02;;;;;;;16.67;9.53;;;0.60;99.90;;;;;;5054752;28;20970;-43
2022/12/11 10:52:30;;;;;;;17.33;9.63;;;0.70;99.90;;;;;;5054725;28;20441;-40
2022/12/11 10:55:00;;;;;;;16.83;10.83;;;0.70;99.90;;;;;;5054633;28;20193;-40
2022/12/11 10:57:33;;;;;;;18.57;10.57;;;0.70;99.90;;;;;;5054662;28;20422;-44
2022/12/11 11:00:00;;;;;;;15.97;9.90;;;0.80;99.90;;;;;;5054425;28;20646;-42
2022/12/11 11:02:33;;;;;;;22.80;12.30;;;0.80;99.90;;;;;;5054677;28;20426;-41
2022/12/11 11:05:09;;;;;;;17.97;11.17;;;0.90;99.90;;;;;;5054722;28;20183;-42
2022/12/11 11:07:35;;;;;;;14.97;9.23;;;0.90;99.90;;;;;;5036501;28;20223;-44
2022/12/11 11:10:09;;;;;;;38.23;22.33;;;1.00;99.90;;;;;;5036422;28;20198;-41
2022/12/11 11:12:46;;;;;;;23.43;13.00;;;1.00;99.90;;;;;;5054616;28;20259;-42
2022/12/11 11:15:14;;;;;;;20.80;13.53;;;1.00;99.90;;;;;;5054370;28;20247;-41
2022/12/11 11:17:49;;;;;;;19.83;12.27;;;1.00;99.90;;;;;;5054661;28;20261;-41
2022/12/11 11:20:18;;;;;;;17.90;11.80;;;1.00;99.90;;;;;;5054672;28;20233;-42
2022/12/11 11:22:46;;;;;;;15.50;10.30;;;1.00;99.90;;;;;;5054195;28;20232;-41
2022/12/11 11:25:18;;;;;;;19.00;10.47;;;1.00;99.90;;;;;;5054426;28;20186;-43
2022/12/11 11:28:01;;;;;;;16.23;9.77;;;1.10;99.90;;;;;;5054438;28;20465;-42
2022/12/11 11:30:30;;;;;;;19.10;11.03;;;1.10;99.90;;;;;;5054234;28;20192;-42
2022/12/11 11:33:02;;;;;;;16.73;10.77;;;1.20;99.90;;;;;;5054109;28;20587;-42
2022/12/11 11:35:29;;;;;;;17.27;9.50;;;1.20;99.90;;;;;;5054419;28;20615;-41
2022/12/11 11:38:18;;;;;;;16.80;9.27;;;1.20;99.90;;;;;;5054255;28;20184;-42
2022/12/11 11:41:06;;;;;;;18.13;10.50;;;1.20;99.90;;;;;;5053889;28;20299;-43
2022/12/11 11:43:46;;;;;;;17.17;10.63;;;1.20;99.90;;;;;;5054113;28;20620;-40
2022/12/11 11:46:32;;;;;;;14.23;8.47;;;1.30;99.90;;;;;;5054279;28;20218;-44
2022/12/11 11:49:22;;;;;;;13.87;9.30;;;1.30;99.90;;;;;;5054000;28;20211;-41
2022/12/11 11:51:59;;;;;;;15.63;10.10;;;1.40;99.90;;;;;;5054009;28;20241;-44
2022/12/11 11:54:55;;;;;;;20.07;10.30;;;1.50;99.90;;;;;;5054354;28;20251;-44
2022/12/11 11:57:53;;;;;;;15.43;9.37;;;1.60;99.90;;;;;;5054368;28;20167;-43
2022/12/11 12:00:22;;;;;;;15.33;8.70;;;1.60;99.90;;;;;;5053827;28;20204;-44
2022/12/11 12:02:53;;;;;;;14.53;8.90;;;1.70;99.90;;;;;;5053828;28;20636;-42
2022/12/11 12:05:26;;;;;;;16.07;8.80;;;1.70;99.90;;;;;;5053622;28;20169;-44
2022/12/11 12:08:13;;;;;;;15.37;9.67;;;1.80;99.90;;;;;;5036502;28;20205;-42
2022/12/11 12:11:12;;;;;;;16.23;10.43;;;1.90;99.90;;;;;;5054126;28;20203;-44
2022/12/11 12:13:56;;;;;;;14.80;8.90;;;1.90;99.90;;;;;;5054329;28;20639;-41
2022/12/11 12:16:56;;;;;;;14.17;8.83;;;2.00;99.90;;;;;;5054175;28;20255;-42
2022/12/11 12:19:31;;;;;;;14.70;8.97;;;2.00;99.90;;;;;;5053903;28;20353;-43
2022/12/11 12:22:07;;;;;;;15.57;9.20;;;1.90;99.90;;;;;;5053869;28;20180;-43
2022/12/11 12:24:59;;;;;;;17.73;9.17;;;1.90;99.90;;;;;;5053669;28;20179;-42
2022/12/11 12:27:37;;;;;;;17.87;9.23;;;1.90;99.90;;;;;;5053838;28;20184;-43
2022/12/11 12:30:10;;;;;;;13.93;8.77;;;2.00;99.90;;;;;;5035437;28;20207;-40
2022/12/11 12:33:13;;;;;;;15.50;9.67;;;2.00;99.90;;;;;;5053705;28;20184;-42
2022/12/11 12:35:47;;;;;;;19.93;9.40;;;2.10;99.90;;;;;;5053676;28;20180;-42
2022/12/11 12:38:20;;;;;;;15.17;9.83;;;2.10;99.90;;;;;;5053612;28;20175;-41
2022/12/11 12:41:13;;;;;;;17.67;10.30;;;2.10;99.90;;;;;;5053576;28;20184;-41
2022/12/11 12:44:11;;;;;;;19.77;11.37;;;2.10;99.90;;;;;;5053423;28;20195;-42
2022/12/11 12:46:51;;;;;;;17.57;11.67;;;2.10;99.90;;;;;;5053202;28;20180;-40
2022/12/11 12:49:34;;;;;;;17.83;10.53;;;2.00;99.90;;;;;;5053765;28;20675;-44
2022/12/11 12:52:02;;;;;;;18.73;10.70;;;2.00;99.90;;;;;;5054579;28;20249;-42
2022/12/11 12:54:30;;;;;;;16.93;10.43;;;2.10;99.90;;;;;;5054790;28;20195;-41
2022/12/11 12:56:57;;;;;;;21.00;11.40;;;2.10;99.90;;;;;;5054430;28;20187;-42
2022/12/11 12:59:25;;;;;;;22.13;12.17;;;2.10;99.90;;;;;;5054860;28;20212;-42
2022/12/11 13:01:58;;;;;;;21.77;11.40;;;2.10;99.90;;;;;;5053400;28;20271;-42
2022/12/11 13:04:38;;;;;;;20.30;11.87;;;2.20;99.90;;;;;;5053510;28;20636;-43
2022/12/11 13:07:18;;;;;;;18.97;11.23;;;2.20;99.90;;;;;;5053325;28;20186;-42
2022/12/11 13:09:57;;;;;;;19.03;11.33;;;2.20;99.90;;;;;;5056200;28;20211;-43